DUCK FRF 26M, NC - 430

GPS Positions

GPS Time
Latitude
Degrees
Longitude
Degrees
Gap
 
Distance
NM
Speed
Knots
Direction
Degrees
2022 May 26, 19:21 36.25829° -75.59220° 30 min 0.03 0.00
256°
2022 May 26, 18:51 36.25829° -75.59216° 30 min 0.03 0.00
282°
2022 May 26, 18:21 36.25829° -75.59212° 30 min 0.03 0.00
332°
2022 May 26, 17:51 36.25825° -75.59209° 30 min 0.03 0.01
283°
2022 May 26, 17:21 36.25824° -75.59203° 30 min 0.04 0.00
292°
2022 May 26, 16:51 36.25823° -75.59201° 30 min 0.04 0.00
270°
2022 May 26, 16:21 36.25823° -75.59196° 30 min 0.04 0.00
313°
2022 May 26, 15:51 36.25822° -75.59195° 30 min 0.04 0.00
270°
2022 May 26, 15:21 36.25822° -75.59190° 30 min 0.04 0.00
238°
2022 May 26, 14:51 36.25823° -75.59188° 30 min 0.04 0.00
270°
2022 May 26, 14:21 36.25823° -75.59186° 30 min 0.04 0.00
2022 May 26, 13:51 36.25823° -75.59186° 30 min 0.04 0.00
224°
2022 May 26, 13:21 36.25825° -75.59184° 30 min 0.04 0.00
58°
2022 May 26, 12:51 36.25824° -75.59186° 30 min 0.04 0.00
180°
2022 May 26, 12:21 36.25825° -75.59186° 30 min 0.04 0.00
90°
2022 May 26, 11:51 36.25825° -75.59188° 30 min 0.04 0.00
238°
2022 May 26, 11:21 36.25826° -75.59186° 30 min 0.04 0.01
122°
2022 May 26, 10:51 36.25829° -75.59190° 30 min 0.03 0.01
302°
2022 May 26, 10:21 36.25826° -75.59186° 30 min 0.04 0.00
238°
2022 May 26, 09:51 36.25827° -75.59184° 30 min 0.04 0.00
180°
2022 May 26, 09:21 36.25829° -75.59184° 30 min 0.04 0.00
180°
2022 May 26, 08:51 36.25830° -75.59184° 30 min 0.04 0.00
122°
2022 May 26, 08:21 36.25832° -75.59186° 30 min 0.03 0.01
68°
2022 May 26, 07:51 36.25829° -75.59193° 30 min 0.03 0.00
122°
2022 May 26, 07:21 36.25830° -75.59195° 30 min 0.03 0.01
115°
2022 May 26, 06:51 36.25833° -75.59201° 30 min 0.03 0.00
2022 May 26, 06:21 36.25830° -75.59201° 30 min 0.03 0.01
125°
2022 May 26, 05:51 36.25834° -75.59207° 30 min 0.03 0.00
340°
2022 May 26, 05:21 36.25830° -75.59206° 30 min 0.03 0.00
2022 May 26, 04:51 36.25830° -75.59206° 30 min 0.03 0.00
329°
2022 May 26, 04:21 36.25827° -75.59203° 30 min 0.03 0.00
180°
2022 May 26, 03:51 36.25830° -75.59203° 30 min 0.03 0.01
84°
2022 May 26, 03:21 36.25829° -75.59216° 30 min 0.03 0.01
117°
2022 May 26, 02:51 36.25833° -75.59225° 30 min 0.03 0.00
332°
2022 May 26, 02:21 36.25829° -75.59222° 30 min 0.03 0.00
270°
2022 May 26, 01:51 36.25829° -75.59220° 30 min 0.03 0.01
302°
2022 May 26, 01:21 36.25826° -75.59214° 30 min 0.03 0.01
110°
2022 May 26, 00:51 36.25829° -75.59225° 30 min 0.03 0.00
297°
2022 May 26, 00:21 36.25827° -75.59220° 30 min 0.03 0.01
285°
2022 May 25, 23:51 36.25825° -75.59209° 30 min 0.03 0.00
270°
2022 May 25, 23:21 36.25825° -75.59206° 30 min 0.03 0.00
2022 May 25, 22:51 36.25825° -75.59206° 30 min 0.03 0.00
90°
2022 May 25, 22:21 36.25825° -75.59209° 30 min 0.03 0.00
63°
2022 May 25, 21:51 36.25823° -75.59214° 30 min 0.03 0.00
270°
2022 May 25, 21:21 36.25823° -75.59212° 30 min 0.03 0.00
73°
2022 May 25, 20:51 36.25822° -75.59216° 30 min 0.04 0.00
2022 May 25, 20:21 36.25822° -75.59216° 30 min 0.04 0.00
287°
2022 May 25, 19:51 36.25821° -75.59212° 30 min 0.04 0.00
180°
2022 May 25, 19:21 36.25823° -75.59212° 30 min 0.03 0.00
2022 May 25, 18:51 36.25822° -75.59212° 30 min 0.04 0.00
90°
2022 May 25, 18:21 36.25822° -75.59214° 30 min 0.04 0.01
302°
2022 May 25, 17:51 36.25820° -75.59209° 30 min 0.04 0.00
290°
2022 May 25, 17:21 36.25819° -75.59206° 30 min 0.04 0.00
180°
2022 May 25, 16:51 36.25820° -75.59206° 30 min 0.04 0.00
302°
2022 May 25, 16:21 36.25819° -75.59203° 30 min 0.04 0.00
253°
2022 May 25, 15:51 36.25820° -75.59199° 30 min 0.04 0.01
245°
2022 May 25, 15:21 36.25822° -75.59193° 30 min 0.04 0.00
2022 May 25, 14:51 36.25822° -75.59193° 30 min 0.04 0.00
270°
2022 May 25, 14:21 36.25822° -75.59188° 30 min 0.04 0.00
243°
2022 May 25, 13:51 36.25824° -75.59184° 30 min 0.04 0.00
2022 May 25, 13:21 36.25824° -75.59184° 30 min 0.04 0.01
227°
2022 May 25, 12:51 36.25829° -75.59177° 30 min 0.04 0.00
224°
2022 May 25, 12:21 36.25830° -75.59175° 30 min 0.04 0.00
122°
2022 May 25, 11:51 36.25832° -75.59177° 30 min 0.04 0.00
219°
2022 May 25, 11:21 36.25834° -75.59175° 30 min 0.04 0.02
69°
2022 May 25, 10:51 36.25829° -75.59193° 30 min 0.03 0.01
95°
2022 May 25, 10:21 36.25829° -75.59203° 30 min 0.03 0.01
36°
2022 May 25, 09:51 36.25825° -75.59207° 30 min 0.03 0.01
122°
2022 May 25, 09:21 36.25827° -75.59212° 30 min 0.03 0.00
90°
2022 May 25, 08:51 36.25827° -75.59214° 30 min 0.03 0.01
103°
2022 May 25, 08:21 36.25829° -75.59220° 30 min 0.03 0.00
90°
2022 May 25, 07:51 36.25829° -75.59222° 30 min 0.03 0.00
321°
2022 May 25, 07:21 36.25826° -75.59220° 30 min 0.03 0.00
2022 May 25, 06:51 36.25826° -75.59220° 30 min 0.03 0.00
58°
2022 May 25, 06:21 36.25825° -75.59222° 30 min 0.03 0.01
310°
2022 May 25, 05:51 36.25822° -75.59218° 30 min 0.04 0.00
307°
2022 May 25, 05:21 36.25820° -75.59214° 30 min 0.04 0.00
2022 May 25, 04:51 36.25820° -75.59214° 30 min 0.04 0.01
270°
2022 May 25, 04:21 36.25820° -75.59207° 30 min 0.04 0.00
270°
2022 May 25, 03:51 36.25820° -75.59203° 30 min 0.04 0.00
270°
2022 May 25, 03:21 36.25820° -75.59201° 30 min 0.04 0.00
270°
2022 May 25, 02:51 36.25820° -75.59199° 30 min 0.04 0.00
321°
2022 May 25, 02:21 36.25817° -75.59196° 30 min 0.04 0.00
233°
2022 May 25, 01:51 36.25820° -75.59193° 30 min 0.04 0.00
253°
2022 May 25, 01:21 36.25821° -75.59188° 30 min 0.04 0.00
238°
2022 May 25, 00:51 36.25822° -75.59186° 30 min 0.04 0.00
180°
2022 May 25, 00:21 36.25824° -75.59186° 30 min 0.04 0.00
180°
2022 May 24, 23:51 36.25826° -75.59186° 30 min 0.04 0.00
2022 May 24, 23:21 36.25825° -75.59186° 30 min 0.04 0.00
122°
2022 May 24, 22:51 36.25826° -75.59188° 30 min 0.04 0.00
90°
2022 May 24, 22:21 36.25826° -75.59190° 30 min 0.04 0.01
122°
2022 May 24, 21:51 36.25829° -75.59195° 30 min 0.03 0.00
122°
2022 May 24, 21:21 36.25830° -75.59199° 30 min 0.03 0.01
134°
2022 May 24, 20:51 36.25836° -75.59206° 30 min 0.03 0.01
116°
2022 May 24, 20:21 36.25840° -75.59216° 30 min 0.02 0.00
90°
2022 May 24, 19:51 36.25840° -75.59218° 30 min 0.02 0.00
2022 May 24, 19:21 36.25838° -75.59218° 30 min 0.03 0.01
112°
2022 May 24, 18:51 36.25842° -75.59231° 30 min 0.02 0.00
107°
2022 May 24, 18:21 36.25843° -75.59235° 30 min 0.02 0.00
39°
2022 May 24, 17:51 36.25841° -75.59238° 30 min 0.03 0.01
300°
2022 May 24, 17:21 36.25837° -75.59229° 30 min 0.03 0.00
332°
2022 May 24, 16:51 36.25835° -75.59227° 30 min 0.03 0.00
297°
2022 May 24, 16:21 36.25833° -75.59222° 30 min 0.03 0.00
302°
2022 May 24, 15:51 36.25832° -75.59220° 30 min 0.03 0.01
278°
2022 May 24, 15:21 36.25830° -75.59209° 30 min 0.03 0.00
290°
2022 May 24, 14:51 36.25829° -75.59206° 30 min 0.03 0.01
270°
2022 May 24, 14:21 36.25829° -75.59193° 30 min 0.03 0.00
238°
2022 May 24, 13:51 36.25830° -75.59190° 30 min 0.03 0.00
253°
2022 May 24, 13:21 36.25832° -75.59186° 30 min 0.03 0.01
225°
2022 May 24, 12:51 36.25835° -75.59182° 30 min 0.03 0.01
227°
2022 May 24, 12:21 36.25838° -75.59177° 30 min 0.03 0.01
230°
2022 May 24, 11:51 36.25841° -75.59173° 30 min 0.03 0.01
189°
2022 May 24, 11:21 36.25849° -75.59171° 30 min 0.03 0.00
152°
2022 May 24, 10:51 36.25851° -75.59173° 30 min 0.03 0.01
205°
2022 May 24, 10:21 36.25858° -75.59169° 30 min 0.03 0.00
180°
2022 May 24, 09:51 36.25859° -75.59169° 30 min 0.03 0.01
115°
2022 May 24, 09:21 36.25862° -75.59175° 30 min 0.02 0.01
210°
2022 May 24, 08:51 36.25867° -75.59171° 30 min 0.03 0.00
180°
2022 May 24, 08:21 36.25870° -75.59171° 30 min 0.02 0.01
194°
2022 May 24, 07:51 36.25878° -75.59169° 30 min 0.03 0.01
162°
2022 May 24, 07:21 36.25887° -75.59173° 30 min 0.02 0.02
127°
2022 May 24, 06:51 36.25898° -75.59190° 30 min 0.02 0.02
100°
2022 May 24, 06:21 36.25900° -75.59207° 30 min 0.01 0.01
75°
2022 May 24, 05:51 36.25898° -75.59218° 30 min 0.01 0.01
76°
2022 May 24, 05:21 36.25896° -75.59227° 30 min 0.01 0.01
71°
2022 May 24, 04:51 36.25894° -75.59235° 30 min 0.01 0.00
44°
2022 May 24, 04:21 36.25892° -75.59238° 30 min 0.01 0.02
26°
2022 May 24, 03:51 36.25878° -75.59246° 30 min 0.01 0.02
2022 May 24, 03:21 36.25862° -75.59246° 30 min 0.02 0.00
122°
2022 May 24, 02:51 36.25863° -75.59248° 30 min 0.02 0.03
329°
2022 May 24, 02:21 36.25839° -75.59231° 30 min 0.03 0.02
295°
2022 May 24, 01:51 36.25834° -75.59216° 30 min 0.03 0.01
287°
2022 May 24, 01:21 36.25832° -75.59207° 30 min 0.03 0.00
332°
2022 May 24, 00:51 36.25829° -75.59206° 30 min 0.03 0.00
180°
2022 May 24, 00:21 36.25830° -75.59206° 30 min 0.03 0.00
2022 May 23, 23:51 36.25829° -75.59206° 30 min 0.03 0.01
90°
2022 May 23, 23:21 36.25829° -75.59212° 30 min 0.03 0.01
109°
2022 May 23, 22:51 36.25832° -75.59220° 30 min 0.03 0.00
302°
2022 May 23, 22:21 36.25830° -75.59218° 30 min 0.03 0.00
2022 May 23, 21:51 36.25830° -75.59218° 30 min 0.03 0.01
122°
2022 May 23, 21:21 36.25834° -75.59225° 30 min 0.03 0.00
104°
2022 May 23, 20:51 36.25835° -75.59229° 30 min 0.03 0.00
180°
2022 May 23, 20:21 36.25837° -75.59229° 30 min 0.03 0.00
2022 May 23, 19:51 36.25834° -75.59229° 30 min 0.03 0.00
202°
2022 May 23, 19:21 36.25837° -75.59227° 30 min 0.03 0.00
70°
2022 May 23, 18:51 36.25836° -75.59231° 30 min 0.03 0.00
270°
2022 May 23, 18:21 36.25836° -75.59229° 30 min 0.03 0.01
302°
2022 May 23, 17:51 36.25832° -75.59220° 30 min 0.03 0.01
180°
2022 May 23, 17:21 36.25836° -75.59220° 30 min 0.03 0.00
2022 May 23, 16:51 36.25836° -75.59220° 30 min 0.03 0.00
290°
2022 May 23, 16:21 36.25835° -75.59216° 30 min 0.03 0.01
103°
2022 May 23, 15:51 36.25837° -75.59229° 30 min 0.03 0.00
270°
2022 May 23, 15:21 36.25837° -75.59227° 30 min 0.03 0.02
273°
2022 May 23, 14:51 36.25836° -75.59203° 30 min 0.03 0.00
270°
2022 May 23, 14:21 36.25836° -75.59199° 30 min 0.03 0.01
140°
2022 May 23, 13:51 36.25842° -75.59206° 30 min 0.02 0.00
127°
2022 May 23, 13:21 36.25845° -75.59209° 30 min 0.02 0.01
238°
2022 May 23, 12:51 36.25848° -75.59203° 30 min 0.02 0.00
90°
2022 May 23, 12:21 36.25848° -75.59207° 30 min 0.02 0.01
250°
2022 May 23, 11:51 36.25852° -75.59193° 30 min 0.02 0.01
282°
2022 May 23, 11:21 36.25850° -75.59182° 30 min 0.03 0.01
164°
2022 May 23, 10:51 36.25854° -75.59184° 30 min 0.02 0.01
68°
2022 May 23, 10:21 36.25852° -75.59190° 30 min 0.02 0.01
203°
2022 May 23, 09:51 36.25861° -75.59186° 30 min 0.02 0.02
32°
2022 May 23, 09:21 36.25849° -75.59195° 30 min 0.02 0.02
83°
2022 May 23, 08:51 36.25846° -75.59218° 30 min 0.02 0.02
146°
2022 May 23, 08:21 36.25862° -75.59231° 30 min 0.01 0.00
180°
2022 May 23, 07:51 36.25863° -75.59231° 30 min 0.01 0.02
339°
2022 May 23, 07:21 36.25850° -75.59225° 30 min 0.02 0.01
19°
2022 May 23, 06:51 36.25841° -75.59229° 30 min 0.02 0.02
168°
2022 May 23, 06:21 36.25858° -75.59233° 30 min 0.01 0.00
152°
2022 May 23, 05:51 36.25862° -75.59235° 30 min 0.01 0.01
19°
2022 May 23, 05:21 36.25856° -75.59238° 30 min 0.02 0.00
253°
2022 May 23, 04:51 36.25858° -75.59233° 30 min 0.02 0.03
304°
2022 May 23, 04:21 36.25846° -75.59212° 30 min 0.02 0.02
302°
2022 May 23, 03:51 36.25838° -75.59196° 30 min 0.03 0.02
247°
2022 May 23, 03:21 36.25845° -75.59177° 30 min 0.03 0.01
233°
2022 May 23, 02:51 36.25851° -75.59167° 30 min 0.03 0.01
199°
2022 May 23, 02:21 36.25856° -75.59164° 30 min 0.03 0.00
321°
2022 May 23, 01:51 36.25854° -75.59162° 30 min 0.03 0.00
250°
2022 May 23, 01:21 36.25855° -75.59158° 30 min 0.03 0.01
180°
2022 May 23, 00:51 36.25859° -75.59158° 30 min 0.03 0.00
219°
2022 May 23, 00:21 36.25862° -75.59156° 30 min 0.03 0.00
180°
2022 May 22, 23:51 36.25865° -75.59156° 30 min 0.03 0.00
180°
2022 May 22, 23:21 36.25866° -75.59156° 30 min 0.03 0.00
180°
2022 May 22, 22:51 36.25867° -75.59156° 30 min 0.03 0.01
204°
2022 May 22, 22:21 36.25871° -75.59154° 30 min 0.03 0.00
90°
2022 May 22, 21:51 36.25871° -75.59156° 30 min 0.03 0.00
149°
2022 May 22, 21:21 36.25874° -75.59158° 30 min 0.03 0.01
169°
2022 May 22, 20:51 36.25881° -75.59160° 30 min 0.03 0.01
150°
2022 May 22, 20:21 36.25887° -75.59164° 30 min 0.03 0.01
140°
2022 May 22, 19:51 36.25894° -75.59171° 30 min 0.03 0.01
128°
2022 May 22, 19:21 36.25899° -75.59180° 30 min 0.02 0.01
115°
2022 May 22, 18:51 36.25901° -75.59186° 30 min 0.02 0.01
104°
2022 May 22, 18:21 36.25903° -75.59195° 30 min 0.02 0.01
97°
2022 May 22, 17:51 36.25904° -75.59207° 30 min 0.02 0.01
84°
2022 May 22, 17:21 36.25903° -75.59220° 30 min 0.01 0.00
2022 May 22, 16:51 36.25903° -75.59220° 30 min 0.01 0.01
75°
2022 May 22, 16:21 36.25900° -75.59231° 30 min 0.01 0.00
31°
2022 May 22, 15:51 36.25897° -75.59233° 30 min 0.01 0.01
40°
2022 May 22, 15:21 36.25891° -75.59240° 30 min 0.01 0.01
38°
2022 May 22, 14:51 36.25882° -75.59248° 30 min 0.01 0.01
16°
2022 May 22, 14:21 36.25875° -75.59251° 30 min 0.01 0.01
2022 May 22, 13:51 36.25865° -75.59251° 30 min 0.02 0.01
2022 May 22, 13:21 36.25853° -75.59251° 30 min 0.02 0.01
333°
2022 May 22, 12:51 36.25846° -75.59246° 30 min 0.02 0.01
318°
2022 May 22, 12:21 36.25838° -75.59238° 30 min 0.03 0.01
306°
2022 May 22, 11:51 36.25833° -75.59229° 30 min 0.03 0.01
297°
2022 May 22, 11:21 36.25829° -75.59220° 30 min 0.03 0.01
270°
2022 May 22, 10:51 36.25829° -75.59214° 30 min 0.03 0.01
290°
2022 May 22, 10:21 36.25826° -75.59203° 30 min 0.03 0.01
238°
2022 May 22, 09:51 36.25829° -75.59199° 30 min 0.03 0.01
266°
2022 May 22, 09:21 36.25829° -75.59186° 30 min 0.04 0.01
238°
2022 May 22, 08:51 36.25835° -75.59175° 30 min 0.04 0.00
238°
2022 May 22, 08:21 36.25836° -75.59173° 30 min 0.04 0.01
216°
2022 May 22, 07:51 36.25840° -75.59169° 30 min 0.04 0.00
2022 May 22, 07:21 36.25840° -75.59169° 30 min 0.04 0.00
238°
2022 May 22, 06:51 36.25841° -75.59167° 30 min 0.04 0.01
210°
2022 May 22, 06:21 36.25848° -75.59162° 30 min 0.03 0.01
199°
2022 May 22, 05:51 36.25853° -75.59160° 30 min 0.03 0.01
191°
2022 May 22, 05:21 36.25859° -75.59158° 30 min 0.03 0.01
199°
2022 May 22, 04:51 36.25865° -75.59156° 30 min 0.03 0.00
180°
2022 May 22, 04:21 36.25868° -75.59156° 30 min 0.03 0.01
180°
2022 May 22, 03:51 36.25874° -75.59156° 30 min 0.03 0.00
2022 May 22, 03:21 36.25871° -75.59156° 30 min 0.03 0.01
180°
2022 May 22, 02:51 36.25875° -75.59156° 30 min 0.03 0.00
180°
2022 May 22, 02:21 36.25879° -75.59156° 30 min 0.03 0.00
180°
2022 May 22, 01:51 36.25881° -75.59156° 30 min 0.03 0.01
161°
2022 May 22, 01:21 36.25886° -75.59158° 30 min 0.03 0.01
168°
2022 May 22, 00:51 36.25892° -75.59160° 30 min 0.03 0.00
136°
2022 May 22, 00:21 36.25894° -75.59162° 30 min 0.03 0.00
107°
2022 May 21, 23:51 36.25895° -75.59167° 30 min 0.03 0.01
130°
2022 May 21, 23:21 36.25899° -75.59173° 30 min 0.03 0.01
133°
2022 May 21, 22:51 36.25903° -75.59177° 30 min 0.02 0.00
112°
2022 May 21, 22:21 36.25903° -75.59180° 30 min 0.02 0.01
124°
2022 May 21, 21:51 36.25908° -75.59188° 30 min 0.02 0.01
58°
2022 May 21, 21:21 36.25906° -75.59193° 30 min 0.02 0.01
90°
2022 May 21, 20:51 36.25906° -75.59201° 30 min 0.02 0.02
79°
2022 May 21, 20:21 36.25903° -75.59216° 30 min 0.01 0.02
68°
2022 May 21, 19:51 36.25898° -75.59233° 30 min 0.01 0.01
33°
2022 May 21, 19:21 36.25890° -75.59240° 30 min 0.01 0.01
33°
2022 May 21, 18:51 36.25882° -75.59246° 30 min 0.01 0.02
12°
2022 May 21, 18:21 36.25865° -75.59251° 30 min 0.02 0.00
2022 May 21, 17:51 36.25863° -75.59251° 30 min 0.02 0.01
2022 May 21, 17:21 36.25858° -75.59251° 30 min 0.02 0.01
341°
2022 May 21, 16:51 36.25853° -75.59248° 30 min 0.02 0.01
346°
2022 May 21, 16:21 36.25846° -75.59246° 30 min 0.02 0.01
321°
2022 May 21, 15:51 36.25841° -75.59241° 30 min 0.03 0.01
330°
2022 May 21, 15:21 36.25836° -75.59238° 30 min 0.03 0.01
299°
2022 May 21, 14:51 36.25833° -75.59231° 30 min 0.03 0.00
321°
2022 May 21, 14:21 36.25830° -75.59229° 30 min 0.03 0.01
180°
2022 May 21, 13:51 36.25835° -75.59229° 30 min 0.03 0.01
290°
2022 May 21, 13:21 36.25832° -75.59218° 30 min 0.03 0.01
289°
2022 May 21, 12:51 36.25829° -75.59209° 30 min 0.03 0.01
279°
2022 May 21, 12:21 36.25829° -75.59203° 30 min 0.03 0.01
266°
2022 May 21, 11:51 36.25829° -75.59190° 30 min 0.03 0.01
278°
2022 May 21, 11:21 36.25829° -75.59184° 30 min 0.04 0.01
246°
2022 May 21, 10:51 36.25832° -75.59175° 30 min 0.04 0.00
180°
2022 May 21, 10:21 36.25834° -75.59175° 30 min 0.04 0.01
238°
2022 May 21, 09:51 36.25837° -75.59169° 30 min 0.04 0.01
240°
2022 May 21, 09:21 36.25841° -75.59160° 30 min 0.04 0.01
199°
2022 May 21, 08:51 36.25850° -75.59156° 30 min 0.04 0.01
221°
2022 May 21, 08:21 36.25854° -75.59151° 30 min 0.04 0.00
180°
2022 May 21, 07:51 36.25858° -75.59151° 30 min 0.04 0.01
180°
2022 May 21, 07:21 36.25864° -75.59151° 30 min 0.04 0.01
196°
2022 May 21, 06:51 36.25870° -75.59149° 30 min 0.04 0.01
164°
2022 May 21, 06:21 36.25877° -75.59151° 30 min 0.03 0.01
161°
2022 May 21, 05:51 36.25882° -75.59154° 30 min 0.03 0.01
139°
2022 May 21, 05:21 36.25886° -75.59158° 30 min 0.03 0.01
168°
2022 May 21, 04:51 36.25892° -75.59160° 30 min 0.03 0.01
156°
2022 May 21, 04:21 36.25896° -75.59162° 30 min 0.03 0.01
139°
2022 May 21, 03:51 36.25900° -75.59167° 30 min 0.03 0.00
90°
2022 May 21, 03:21 36.25900° -75.59171° 30 min 0.03 0.00
90°
2022 May 21, 02:51 36.25900° -75.59175° 30 min 0.03 0.01
130°
2022 May 21, 02:21 36.25903° -75.59180° 30 min 0.02 0.00
180°
2022 May 21, 01:51 36.25906° -75.59180° 30 min 0.02 0.01
100°
2022 May 21, 01:21 36.25907° -75.59188° 30 min 0.02 0.01
102°
2022 May 21, 00:51 36.25909° -75.59199° 30 min 0.02 0.01
86°
2022 May 21, 00:21 36.25908° -75.59212° 30 min 0.02 0.01
63°
2022 May 20, 23:51 36.25904° -75.59220° 30 min 0.01 0.02
52°
2022 May 20, 23:21 36.25895° -75.59235° 30 min 0.01 0.02
32°
2022 May 20, 22:51 36.25884° -75.59244° 30 min 0.01 0.01
17°
2022 May 20, 22:21 36.25872° -75.59248° 30 min 0.01 0.02
352°
2022 May 20, 21:51 36.25859° -75.59246° 30 min 0.02 0.01
343°
2022 May 20, 21:21 36.25848° -75.59241° 30 min 0.02 0.01
318°
2022 May 20, 20:51 36.25840° -75.59233° 30 min 0.03 0.02
304°
2022 May 20, 20:21 36.25832° -75.59218° 30 min 0.03 0.01
277°
2022 May 20, 19:51 36.25830° -75.59206° 30 min 0.03 0.01
261°
2022 May 20, 19:21 36.25832° -75.59196° 30 min 0.03 0.00
58°
2022 May 20, 18:51 36.25830° -75.59199° 30 min 0.03 0.01
257°
2022 May 20, 18:21 36.25832° -75.59193° 30 min 0.03 0.00
329°
2022 May 20, 17:51 36.25829° -75.59190° 30 min 0.03 0.00
112°
2022 May 20, 17:21 36.25829° -75.59193° 30 min 0.03 0.00
68°
2022 May 20, 16:51 36.25829° -75.59195° 30 min 0.03 0.01
252°
2022 May 20, 16:21 36.25832° -75.59184° 30 min 0.03 0.01
270°
2022 May 20, 15:51 36.25832° -75.59177° 30 min 0.04 0.01
204°
2022 May 20, 15:21 36.25836° -75.59175° 30 min 0.03 0.01
180°
2022 May 20, 14:51 36.25840° -75.59175° 30 min 0.03 0.01
227°
2022 May 20, 14:21 36.25845° -75.59169° 30 min 0.03 0.00
243°
2022 May 20, 13:51 36.25846° -75.59164° 30 min 0.03 0.01
199°
2022 May 20, 13:21 36.25852° -75.59162° 30 min 0.03 0.01
198°
2022 May 20, 12:51 36.25858° -75.59160° 30 min 0.03 0.01
188°
2022 May 20, 12:21 36.25866° -75.59158° 30 min 0.03 0.01
180°
2022 May 20, 11:51 36.25870° -75.59158° 30 min 0.03 0.01
180°
2022 May 20, 11:21 36.25877° -75.59158° 30 min 0.03 0.01
180°
2022 May 20, 10:51 36.25882° -75.59158° 30 min 0.03 0.00
2022 May 20, 10:21 36.25882° -75.59158° 30 min 0.03 0.01
167°
2022 May 20, 09:51 36.25887° -75.59160° 30 min 0.03 0.00
152°
2022 May 20, 09:21 36.25891° -75.59162° 30 min 0.03 0.00
136°
2022 May 20, 08:51 36.25893° -75.59164° 30 min 0.03 0.00
122°
2022 May 20, 08:21 36.25894° -75.59167° 30 min 0.03 0.01
139°
2022 May 20, 07:51 36.25898° -75.59171° 30 min 0.03 0.01
133°
2022 May 20, 07:21 36.25903° -75.59177° 30 min 0.02 0.00
117°
2022 May 20, 06:51 36.25904° -75.59182° 30 min 0.02 0.01
109°
2022 May 20, 06:21 36.25907° -75.59190° 30 min 0.02 0.00
90°
2022 May 20, 05:51 36.25907° -75.59193° 30 min 0.02 0.01
82°
2022 May 20, 05:21 36.25906° -75.59203° 30 min 0.02 0.01
77°
2022 May 20, 04:51 36.25904° -75.59209° 30 min 0.02 0.01
84°
2022 May 20, 04:21 36.25903° -75.59222° 30 min 0.01 0.01
58°
2022 May 20, 03:51 36.25899° -75.59231° 30 min 0.01 0.01
46°
2022 May 20, 03:21 36.25894° -75.59238° 30 min 0.01 0.01
36°
2022 May 20, 02:51 36.25890° -75.59241° 30 min 0.01 0.02
35°
2022 May 20, 02:21 36.25879° -75.59251° 30 min 0.01 0.01
17°
2022 May 20, 01:51 36.25869° -75.59254° 30 min 0.02 0.00
302°
2022 May 20, 01:21 36.25867° -75.59251° 30 min 0.02 0.01
2022 May 20, 00:51 36.25862° -75.59251° 30 min 0.02 0.01
334°
2022 May 20, 00:21 36.25854° -75.59246° 30 min 0.02 0.02
321°
2022 May 19, 23:51 36.25841° -75.59233° 30 min 0.02 0.01
302°
2022 May 19, 23:21 36.25836° -75.59222° 30 min 0.03 0.01
286°
2022 May 19, 22:51 36.25833° -75.59209° 30 min 0.03 0.02
270°
2022 May 19, 22:21 36.25833° -75.59193° 30 min 0.03 0.01
241°
2022 May 19, 21:51 36.25836° -75.59186° 30 min 0.03 0.01
244°
2022 May 19, 21:21 36.25840° -75.59175° 30 min 0.03 0.01
222°
2022 May 19, 20:51 36.25843° -75.59171° 30 min 0.03 0.01
238°
2022 May 19, 20:21 36.25846° -75.59167° 30 min 0.03 0.01
213°
2022 May 19, 19:51 36.25854° -75.59160° 30 min 0.03 0.00
2022 May 19, 19:21 36.25854° -75.59160° 30 min 0.03 0.01
216°
2022 May 19, 18:51 36.25858° -75.59156° 30 min 0.03 0.01
199°
2022 May 19, 18:21 36.25864° -75.59154° 30 min 0.03 0.01
158°
2022 May 19, 17:51 36.25868° -75.59156° 30 min 0.03 0.01
180°
2022 May 19, 17:21 36.25872° -75.59156° 30 min 0.03 0.00
180°
2022 May 19, 16:51 36.25875° -75.59156° 30 min 0.03 0.01
180°
2022 May 19, 16:21 36.25881° -75.59156° 30 min 0.03 0.01
150°
2022 May 19, 15:51 36.25886° -75.59160° 30 min 0.03 0.01
147°
2022 May 19, 15:21 36.25892° -75.59164° 30 min 0.03 0.01
138°
2022 May 19, 14:51 36.25898° -75.59171° 30 min 0.03 0.00
110°
2022 May 19, 14:21 36.25899° -75.59175° 30 min 0.02 0.01
180°
2022 May 19, 13:51 36.25903° -75.59175° 30 min 0.03 0.00
68°
2022 May 19, 13:21 36.25903° -75.59177° 30 min 0.02 0.00
2022 May 19, 12:51 36.25903° -75.59177° 30 min 0.02 0.00
112°
2022 May 19, 12:21 36.25903° -75.59180° 30 min 0.02 0.00
68°
2022 May 19, 11:51 36.25903° -75.59182° 30 min 0.02 0.00
302°
2022 May 19, 11:21 36.25901° -75.59180° 30 min 0.02 0.01
313°
2022 May 19, 10:51 36.25898° -75.59175° 30 min 0.02 0.01
330°
2022 May 19, 10:21 36.25893° -75.59171° 30 min 0.03 0.01
330°
2022 May 19, 09:51 36.25886° -75.59167° 30 min 0.03 0.00
292°
2022 May 19, 09:21 36.25885° -75.59164° 30 min 0.03 0.01
344°
2022 May 19, 08:51 36.25879° -75.59162° 30 min 0.03 0.01
338°
2022 May 19, 08:21 36.25874° -75.59160° 30 min 0.03 0.01
344°
2022 May 19, 07:51 36.25870° -75.59158° 30 min 0.03 0.00
270°
2022 May 19, 07:21 36.25870° -75.59156° 30 min 0.03 0.00
2022 May 19, 06:51 36.25869° -75.59156° 30 min 0.03 0.00
2022 May 19, 06:21 36.25866° -75.59156° 30 min 0.03 0.00
2022 May 19, 05:51 36.25866° -75.59156° 30 min 0.03 0.00
270°
2022 May 19, 05:21 36.25866° -75.59154° 30 min 0.03 0.00
90°
2022 May 19, 04:51 36.25866° -75.59156° 30 min 0.03 0.01
180°
2022 May 19, 04:21 36.25870° -75.59156° 30 min 0.03 0.00
180°
2022 May 19, 03:51 36.25874° -75.59156° 30 min 0.03 0.01
156°
2022 May 19, 03:21 36.25878° -75.59158° 30 min 0.03 0.01
204°
2022 May 19, 02:51 36.25882° -75.59156° 30 min 0.03 0.01
156°
2022 May 19, 02:21 36.25886° -75.59158° 30 min 0.03 0.00
2022 May 19, 01:51 36.25886° -75.59158° 30 min 0.03 0.00
152°
2022 May 19, 01:21 36.25888° -75.59160° 30 min 0.03 0.01
112°
2022 May 19, 00:51 36.25891° -75.59167° 30 min 0.03 0.00
136°
2022 May 19, 00:21 36.25893° -75.59169° 30 min 0.03 0.01
346°
2022 May 18, 23:51 36.25885° -75.59167° 30 min 0.03 0.01
346°
2022 May 18, 23:21 36.25878° -75.59164° 30 min 0.03 0.00
2022 May 18, 22:51 36.25874° -75.59164° 30 min 0.03 0.01
12°
2022 May 18, 22:21 36.25866° -75.59167° 30 min 0.03 0.01
336°
2022 May 18, 21:51 36.25862° -75.59164° 30 min 0.03 0.00
2022 May 18, 21:21 36.25858° -75.59164° 30 min 0.03 0.00
292°
2022 May 18, 20:51 36.25858° -75.59162° 30 min 0.03 0.00
2022 May 18, 20:21 36.25854° -75.59162° 30 min 0.03 0.00
238°
2022 May 18, 19:51 36.25855° -75.59160° 30 min 0.03 0.00
58°
2022 May 18, 19:21 36.25854° -75.59162° 30 min 0.03 0.00
270°
2022 May 18, 18:51 36.25854° -75.59160° 30 min 0.03 0.00
2022 May 18, 18:21 36.25854° -75.59160° 30 min 0.03 0.00
180°
2022 May 18, 17:51 36.25858° -75.59160° 30 min 0.03 0.01
130°
2022 May 18, 17:21 36.25861° -75.59164° 30 min 0.03 0.02
107°
2022 May 18, 16:51 36.25865° -75.59182° 30 min 0.02 0.00
22°
2022 May 18, 16:21 36.25862° -75.59184° 30 min 0.02 0.02
49°
2022 May 18, 15:51 36.25851° -75.59199° 30 min 0.02 0.01
46°
2022 May 18, 15:21 36.25845° -75.59207° 30 min 0.02 0.02
94°
2022 May 18, 14:51 36.25846° -75.59229° 30 min 0.02 0.01
126°
2022 May 18, 14:21 36.25851° -75.59238° 30 min 0.02 0.00
58°
2022 May 18, 13:51 36.25850° -75.59240° 30 min 0.02 0.01
341°
2022 May 18, 13:21 36.25845° -75.59238° 30 min 0.02 0.01
325°
2022 May 18, 12:51 36.25839° -75.59233° 30 min 0.03 0.01
304°
2022 May 18, 12:21 36.25835° -75.59225° 30 min 0.03 0.01
289°
2022 May 18, 11:51 36.25833° -75.59218° 30 min 0.03 0.01
277°
2022 May 18, 11:21 36.25832° -75.59206° 30 min 0.03 0.00
287°
2022 May 18, 10:51 36.25830° -75.59201° 30 min 0.03 0.01
252°
2022 May 18, 10:21 36.25834° -75.59188° 30 min 0.03 0.02
246°
2022 May 18, 09:51 36.25840° -75.59171° 30 min 0.03 0.01
219°
2022 May 18, 09:21 36.25845° -75.59167° 30 min 0.03 0.00
224°
2022 May 18, 08:51 36.25846° -75.59164° 30 min 0.03 0.00
63°
2022 May 18, 08:21 36.25845° -75.59169° 30 min 0.03 0.00
2022 May 18, 07:51 36.25841° -75.59169° 30 min 0.03 0.01
238°
2022 May 18, 07:21 36.25845° -75.59162° 30 min 0.04 0.00
238°
2022 May 18, 06:51 36.25846° -75.59160° 30 min 0.04 0.00
180°
2022 May 18, 06:21 36.25848° -75.59160° 30 min 0.04 0.00
180°
2022 May 18, 05:51 36.25850° -75.59160° 30 min 0.03 0.00
238°
2022 May 18, 05:21 36.25852° -75.59156° 30 min 0.04 0.01
180°
2022 May 18, 04:51 36.25858° -75.59156° 30 min 0.03 0.00
224°
2022 May 18, 04:21 36.25859° -75.59154° 30 min 0.03 0.00
208°
2022 May 18, 03:51 36.25863° -75.59151° 30 min 0.04 0.00
180°
2022 May 18, 03:21 36.25866° -75.59151° 30 min 0.03 0.01
180°
2022 May 18, 02:51 36.25870° -75.59151° 30 min 0.03 0.01
180°
2022 May 18, 02:21 36.25874° -75.59151° 30 min 0.03 0.01
150°
2022 May 18, 01:51 36.25881° -75.59156° 30 min 0.03 0.01
158°
2022 May 18, 01:21 36.25885° -75.59158° 30 min 0.03 0.01
164°
2022 May 18, 00:51 36.25890° -75.59160° 30 min 0.03 0.00
2022 May 18, 00:21 36.25888° -75.59160° 30 min 0.03 0.01
136°
2022 May 17, 23:51 36.25896° -75.59169° 30 min 0.03 0.00
122°
2022 May 17, 23:21 36.25898° -75.59173° 30 min 0.03 0.00
180°
2022 May 17, 22:51 36.25901° -75.59173° 30 min 0.03 0.00
2022 May 17, 22:21 36.25900° -75.59173° 30 min 0.03 0.00
58°
2022 May 17, 21:51 36.25899° -75.59175° 30 min 0.02 0.00
2022 May 17, 21:21 36.25897° -75.59175° 30 min 0.02 0.01
338°
2022 May 17, 20:51 36.25893° -75.59173° 30 min 0.02 0.01
310°
2022 May 17, 20:21 36.25888° -75.59167° 30 min 0.03 0.00
180°
2022 May 17, 19:51 36.25892° -75.59167° 30 min 0.03 0.00
302°
2022 May 17, 19:21 36.25891° -75.59164° 30 min 0.03 0.00
2022 May 17, 18:51 36.25891° -75.59164° 30 min 0.03 0.00
238°
2022 May 17, 18:21 36.25892° -75.59162° 30 min 0.03 0.01
127°
2022 May 17, 17:51 36.25896° -75.59169° 30 min 0.03 0.00
180°
2022 May 17, 17:21 36.25897° -75.59169° 30 min 0.03 0.01
132°
2022 May 17, 16:51 36.25903° -75.59177° 30 min 0.03 0.01
118°
2022 May 17, 16:21 36.25908° -75.59188° 30 min 0.02 0.01
102°
2022 May 17, 15:51 36.25910° -75.59199° 30 min 0.02 0.01
96°
2022 May 17, 15:21 36.25911° -75.59212° 30 min 0.02 0.01
84°
2022 May 17, 14:51 36.25910° -75.59225° 30 min 0.02 0.01
66°
2022 May 17, 14:21 36.25907° -75.59233° 30 min 0.02 0.01
44°
2022 May 17, 13:51 36.25898° -75.59244° 30 min 0.02 0.01
41°
2022 May 17, 13:21 36.25894° -75.59248° 30 min 0.02 0.00
58°
2022 May 17, 12:51 36.25893° -75.59251° 30 min 0.02 0.02
24°
2022 May 17, 12:21 36.25878° -75.59259° 30 min 0.02 0.01
2022 May 17, 11:51 36.25869° -75.59259° 30 min 0.02 0.00
68°
2022 May 17, 11:21 36.25868° -75.59261° 30 min 0.02 0.01
2022 May 17, 10:51 36.25861° -75.59261° 30 min 0.02 0.01
337°
2022 May 17, 10:21 36.25852° -75.59257° 30 min 0.02 0.01
321°
2022 May 17, 09:51 36.25846° -75.59251° 30 min 0.03 0.01
313°
2022 May 17, 09:21 36.25842° -75.59246° 30 min 0.03 0.01
318°
2022 May 17, 08:51 36.25835° -75.59238° 30 min 0.03 0.01
292°
2022 May 17, 08:21 36.25832° -75.59229° 30 min 0.03 0.02
285°
2022 May 17, 07:51 36.25827° -75.59209° 30 min 0.03 0.01
270°
2022 May 17, 07:21 36.25827° -75.59199° 30 min 0.03 0.01
262°
2022 May 17, 06:51 36.25829° -75.59188° 30 min 0.04 0.01
248°
2022 May 17, 06:21 36.25833° -75.59175° 30 min 0.04 0.01
219°
2022 May 17, 05:51 36.25841° -75.59167° 30 min 0.04 0.01
220°
2022 May 17, 05:21 36.25848° -75.59160° 30 min 0.04 0.01
195°
2022 May 17, 04:51 36.25859° -75.59156° 30 min 0.03 0.01
194°
2022 May 17, 04:21 36.25867° -75.59154° 30 min 0.03 0.01
168°
2022 May 17, 03:51 36.25875° -75.59156° 30 min 0.03 0.01
158°
2022 May 17, 03:21 36.25883° -75.59160° 30 min 0.03 0.01
150°
2022 May 17, 02:51 36.25893° -75.59167° 30 min 0.03 0.01
122°
2022 May 17, 02:21 36.25895° -75.59171° 30 min 0.03 0.01
116°
2022 May 17, 01:51 36.25899° -75.59182° 30 min 0.02 0.01
117°
2022 May 17, 01:21 36.25903° -75.59190° 30 min 0.02 0.01
106°
2022 May 17, 00:51 36.25904° -75.59199° 30 min 0.02 0.01
102°
2022 May 17, 00:21 36.25906° -75.59206° 30 min 0.02 0.00
110°
2022 May 16, 23:51 36.25907° -75.59209° 30 min 0.02 0.00
224°
2022 May 16, 23:21 36.25909° -75.59207° 30 min 0.02 0.00
90°
2022 May 16, 22:51 36.25909° -75.59209° 30 min 0.02 0.00
2022 May 16, 22:21 36.25909° -75.59209° 30 min 0.02 0.01
264°
2022 May 16, 21:51 36.25910° -75.59196° 30 min 0.02 0.00
90°
2022 May 16, 21:21 36.25910° -75.59199° 30 min 0.02 0.01
280°
2022 May 16, 20:51 36.25909° -75.59190° 30 min 0.02 0.01
70°
2022 May 16, 20:21 36.25906° -75.59201° 30 min 0.02 0.01
102°
2022 May 16, 19:51 36.25908° -75.59214° 30 min 0.02 0.00
58°
2022 May 16, 19:21 36.25907° -75.59216° 30 min 0.02 0.01
37°
2022 May 16, 18:51 36.25900° -75.59222° 30 min 0.01 0.01
295°
2022 May 16, 18:21 36.25898° -75.59216° 30 min 0.01 0.03
278°
2022 May 16, 17:51 36.25895° -75.59190° 30 min 0.02 0.02
321°
2022 May 16, 17:21 36.25882° -75.59177° 30 min 0.02 0.01
310°
2022 May 16, 16:51 36.25878° -75.59171° 30 min 0.02 0.00
321°
2022 May 16, 16:21 36.25875° -75.59169° 30 min 0.03 0.01
180°
2022 May 16, 15:51 36.25880° -75.59169° 30 min 0.03 0.01
94°
2022 May 16, 15:21 36.25881° -75.59182° 30 min 0.02 0.01
117°
2022 May 16, 14:51 36.25884° -75.59190° 30 min 0.01 0.01
122°
2022 May 16, 14:21 36.25890° -75.59201° 30 min 0.01 0.00
90°
2022 May 16, 13:51 36.25890° -75.59206° 30 min 0.01 0.01
103°
2022 May 16, 13:21 36.25891° -75.59212° 30 min 0.01 0.01
77°
2022 May 16, 12:51 36.25890° -75.59218° 30 min 0.01 0.00
73°
2022 May 16, 12:21 36.25888° -75.59222° 30 min 0.00 0.00
321°
2022 May 16, 11:51 36.25886° -75.59220° 30 min 0.00 0.01
42°
2022 May 16, 11:21 36.25880° -75.59227° 30 min 0.00 0.01
55°
2022 May 16, 10:51 36.25877° -75.59233° 30 min 0.01 0.00
90°
2022 May 16, 10:21 36.25877° -75.59238° 30 min 0.01 0.00
302°
2022 May 16, 09:51 36.25875° -75.59235° 30 min 0.01 0.01
218°
2022 May 16, 09:21 36.25884° -75.59227° 30 min 0.00 0.03
297°
2022 May 16, 08:51 36.25872° -75.59199° 30 min 0.01 0.02
335°
2022 May 16, 08:21 36.25854° -75.59188° 30 min 0.02 0.02
344°
2022 May 16, 07:51 36.25841° -75.59184° 30 min 0.03 0.01
260°
2022 May 16, 07:21 36.25842° -75.59175° 30 min 0.03 0.00
270°
2022 May 16, 06:51 36.25842° -75.59173° 30 min 0.03 0.00
2022 May 16, 06:21 36.25840° -75.59173° 30 min 0.03 0.00
270°
2022 May 16, 05:51 36.25840° -75.59171° 30 min 0.03 0.01
227°
2022 May 16, 05:21 36.25843° -75.59167° 30 min 0.03 0.01
226°
2022 May 16, 04:51 36.25849° -75.59160° 30 min 0.04 0.01
202°
2022 May 16, 04:21 36.25856° -75.59156° 30 min 0.03 0.01
180°
2022 May 16, 03:51 36.25865° -75.59156° 30 min 0.03 0.01
171°
2022 May 16, 03:21 36.25877° -75.59158° 30 min 0.03 0.01
165°
2022 May 16, 02:51 36.25888° -75.59162° 30 min 0.03 0.01
156°
2022 May 16, 02:21 36.25893° -75.59164° 30 min 0.03 0.01
134°
2022 May 16, 01:51 36.25899° -75.59173° 30 min 0.03 0.01
140°
2022 May 16, 01:21 36.25906° -75.59180° 30 min 0.02 0.01
122°
2022 May 16, 00:51 36.25910° -75.59188° 30 min 0.02 0.01
90°
2022 May 16, 00:21 36.25910° -75.59199° 30 min 0.02 0.01
90°
2022 May 15, 23:51 36.25910° -75.59206° 30 min 0.02 0.01
115°
2022 May 15, 23:21 36.25912° -75.59212° 30 min 0.02 0.01
77°
2022 May 15, 22:51 36.25911° -75.59218° 30 min 0.02 0.01
78°
2022 May 15, 22:21 36.25910° -75.59225° 30 min 0.02 0.01
50°
2022 May 15, 21:51 36.25903° -75.59235° 30 min 0.01 0.01
23°
2022 May 15, 21:21 36.25894° -75.59240° 30 min 0.01 0.01
43°
2022 May 15, 20:51 36.25888° -75.59246° 30 min 0.01 0.01
2022 May 15, 20:21 36.25882° -75.59246° 30 min 0.01 0.01
2022 May 15, 19:51 36.25875° -75.59246° 30 min 0.01 0.01
350°
2022 May 15, 19:21 36.25865° -75.59244° 30 min 0.01 0.01
345°
2022 May 15, 18:51 36.25853° -75.59240° 30 min 0.02 0.02
325°
2022 May 15, 18:21 36.25842° -75.59231° 30 min 0.02 0.02
309°
2022 May 15, 17:51 36.25834° -75.59218° 30 min 0.03 0.01
295°
2022 May 15, 17:21 36.25829° -75.59206° 30 min 0.03 0.00
270°
2022 May 15, 16:51 36.25829° -75.59203° 30 min 0.03 0.01
270°
2022 May 15, 16:21 36.25829° -75.59193° 30 min 0.03 0.00
219°
2022 May 15, 15:51 36.25832° -75.59190° 30 min 0.03 0.01
180°
2022 May 15, 15:21 36.25838° -75.59190° 30 min 0.03 0.03
212°
2022 May 15, 14:51 36.25858° -75.59175° 30 min 0.03 0.03
98°
2022 May 15, 14:21 36.25861° -75.59201° 30 min 0.02 0.02
134°
2022 May 15, 13:51 36.25874° -75.59218° 30 min 0.00 0.01
117°
2022 May 15, 13:21 36.25879° -75.59231° 30 min 0.00 0.00
270°
2022 May 15, 12:51 36.25879° -75.59229° 30 min 0.00 0.01
64°
2022 May 15, 12:21 36.25874° -75.59240° 30 min 0.01 0.01
2022 May 15, 11:51 36.25866° -75.59240° 30 min 0.01 0.01
2022 May 15, 11:21 36.25862° -75.59240° 30 min 0.01 0.00
20°
2022 May 15, 10:51 36.25858° -75.59241° 30 min 0.02 0.00
302°
2022 May 15, 10:21 36.25856° -75.59238° 30 min 0.02 0.00
302°
2022 May 15, 09:51 36.25855° -75.59235° 30 min 0.02 0.01
343°
2022 May 15, 09:21 36.25843° -75.59231° 30 min 0.02 0.01
312°
2022 May 15, 08:51 36.25836° -75.59220° 30 min 0.03 0.01
302°
2022 May 15, 08:21 36.25832° -75.59212° 30 min 0.03 0.00
287°
2022 May 15, 07:51 36.25830° -75.59207° 30 min 0.03 0.00
290°
2022 May 15, 07:21 36.25829° -75.59203° 30 min 0.03 0.01
258°
2022 May 15, 06:51 36.25830° -75.59196° 30 min 0.03 0.01
245°
2022 May 15, 06:21 36.25833° -75.59190° 30 min 0.03 0.00
180°
2022 May 15, 05:51 36.25835° -75.59190° 30 min 0.03 0.01
248°
2022 May 15, 05:21 36.25837° -75.59184° 30 min 0.03 0.00
180°
2022 May 15, 04:51 36.25838° -75.59184° 30 min 0.03 0.00
270°
2022 May 15, 04:21 36.25838° -75.59180° 30 min 0.03 0.00
270°
2022 May 15, 03:51 36.25838° -75.59177° 30 min 0.03 0.01
210°
2022 May 15, 03:21 36.25845° -75.59173° 30 min 0.03 0.01
210°
2022 May 15, 02:51 36.25850° -75.59169° 30 min 0.03 0.01
55°
2022 May 15, 02:21 36.25846° -75.59175° 30 min 0.03 0.03
185°
2022 May 15, 01:51 36.25869° -75.59173° 30 min 0.02 0.02
139°
2022 May 15, 01:21 36.25883° -75.59188° 30 min 0.02 0.02
98°
2022 May 15, 00:51 36.25885° -75.59207° 30 min 0.01 0.01
126°
2022 May 15, 00:21 36.25891° -75.59216° 30 min 0.01 0.00
70°
2022 May 14, 23:51 36.25890° -75.59220° 30 min 0.01 0.01
53°
2022 May 14, 23:21 36.25885° -75.59227° 30 min 0.00 0.02
30°
2022 May 14, 22:51 36.25874° -75.59235° 30 min 0.01 0.01
215°
2022 May 14, 22:21 36.25879° -75.59231° 30 min 0.00 0.01
318°
2022 May 14, 21:51 36.25875° -75.59227° 30 min 0.00 0.01
16°
2022 May 14, 21:21 36.25871° -75.59229° 30 min 0.01 0.02
48°
2022 May 14, 20:51 36.25862° -75.59241° 30 min 0.02 0.01
338°
2022 May 14, 20:21 36.25854° -75.59238° 30 min 0.02 0.01
341°
2022 May 14, 19:51 36.25849° -75.59235° 30 min 0.02 0.01
307°
2022 May 14, 19:21 36.25845° -75.59229° 30 min 0.02 0.01
318°
2022 May 14, 18:51 36.25841° -75.59225° 30 min 0.02 0.01
314°
2022 May 14, 18:21 36.25835° -75.59216° 30 min 0.03 0.02
273°
2022 May 14, 17:51 36.25834° -75.59199° 30 min 0.03 0.01
94°
2022 May 14, 17:21 36.25835° -75.59212° 30 min 0.03 0.00
2022 May 14, 16:51 36.25835° -75.59212° 30 min 0.03 0.00
297°
2022 May 14, 16:21 36.25833° -75.59207° 30 min 0.03 0.01
283°
2022 May 14, 15:51 36.25832° -75.59201° 30 min 0.03 0.00
287°
2022 May 14, 15:21 36.25830° -75.59196° 30 min 0.03 0.00
270°
2022 May 14, 14:51 36.25830° -75.59193° 30 min 0.03 0.00
180°
2022 May 14, 14:21 36.25833° -75.59193° 30 min 0.03 0.01
251°
2022 May 14, 13:51 36.25835° -75.59186° 30 min 0.03 0.00
2022 May 14, 13:21 36.25835° -75.59186° 30 min 0.03 0.01
214°
2022 May 14, 12:51 36.25845° -75.59177° 30 min 0.03 0.01
122°
2022 May 14, 12:21 36.25848° -75.59184° 30 min 0.03 0.00
90°
2022 May 14, 11:51 36.25848° -75.59186° 30 min 0.03 0.01
122°
2022 May 14, 11:21 36.25850° -75.59190° 30 min 0.02 0.02
128°
2022 May 14, 10:51 36.25859° -75.59206° 30 min 0.01 0.02
114°
2022 May 14, 10:21 36.25867° -75.59227° 30 min 0.01 0.02
167°
2022 May 14, 09:51 36.25880° -75.59231° 30 min 0.00 0.02
2022 May 14, 09:21 36.25859° -75.59231° 30 min 0.01 0.01
341°
2022 May 14, 08:51 36.25854° -75.59229° 30 min 0.02 0.00
2022 May 14, 08:21 36.25851° -75.59229° 30 min 0.02 0.01
326°
2022 May 14, 07:51 36.25846° -75.59225° 30 min 0.02 0.00
316°
2022 May 14, 07:21 36.25845° -75.59222° 30 min 0.02 0.01
302°
2022 May 14, 06:51 36.25839° -75.59212° 30 min 0.03 0.01
295°
2022 May 14, 06:21 36.25837° -75.59206° 30 min 0.03 0.00
302°
2022 May 14, 05:51 36.25836° -75.59203° 30 min 0.03 0.00
180°
2022 May 14, 05:21 36.25837° -75.59203° 30 min 0.03 0.01
310°
2022 May 14, 04:51 36.25834° -75.59199° 30 min 0.03 0.01
254°
2022 May 14, 04:21 36.25836° -75.59190° 30 min 0.03 0.00
238°
2022 May 14, 03:51 36.25837° -75.59188° 30 min 0.03 0.01
230°
2022 May 14, 03:21 36.25840° -75.59184° 30 min 0.03 0.00
180°
2022 May 14, 02:51 36.25842° -75.59184° 30 min 0.03 0.00
270°
2022 May 14, 02:21 36.25842° -75.59180° 30 min 0.03 0.00
58°
2022 May 14, 01:51 36.25841° -75.59182° 30 min 0.03 0.00
133°
2022 May 14, 01:21 36.25842° -75.59184° 30 min 0.03 0.01
122°
2022 May 14, 00:51 36.25845° -75.59188° 30 min 0.03 0.01
100°
2022 May 14, 00:21 36.25846° -75.59196° 30 min 0.02 0.02
104°
2022 May 13, 23:51 36.25849° -75.59212° 30 min 0.02 0.03
124°
2022 May 13, 23:21 36.25861° -75.59233° 30 min 0.01 0.00
39°
2022 May 13, 22:51 36.25858° -75.59235° 30 min 0.02 0.01
84°
2022 May 13, 22:21 36.25858° -75.59244° 30 min 0.02 0.00
224°
2022 May 13, 21:51 36.25859° -75.59241° 30 min 0.02 0.00
2022 May 13, 21:21 36.25856° -75.59241° 30 min 0.02 0.00
2022 May 13, 20:51 36.25853° -75.59241° 30 min 0.02 0.01
344°
2022 May 13, 20:21 36.25849° -75.59240° 30 min 0.02 0.00
321°
2022 May 13, 19:51 36.25846° -75.59238° 30 min 0.02 0.01
314°
2022 May 13, 19:21 36.25841° -75.59231° 30 min 0.02 0.01
302°
2022 May 13, 18:51 36.25837° -75.59222° 30 min 0.03 0.01
308°
2022 May 13, 18:21 36.25832° -75.59214° 30 min 0.03 0.00
270°
2022 May 13, 17:51 36.25832° -75.59212° 30 min 0.03 0.00
287°
2022 May 13, 17:21 36.25830° -75.59207° 30 min 0.03 0.00
250°
2022 May 13, 16:51 36.25832° -75.59203° 30 min 0.03 0.01
115°
2022 May 13, 16:21 36.25834° -75.59209° 30 min 0.03 0.01
318°
2022 May 13, 15:51 36.25830° -75.59206° 30 min 0.03 0.01
279°
2022 May 13, 15:21 36.25829° -75.59196° 30 min 0.03 0.00
327°
2022 May 13, 14:51 36.25827° -75.59195° 30 min 0.03 0.00
253°
2022 May 13, 14:21 36.25829° -75.59190° 30 min 0.03 0.00
180°
2022 May 13, 13:51 36.25830° -75.59190° 30 min 0.03 0.00
219°
2022 May 13, 13:21 36.25833° -75.59188° 30 min 0.03 0.00
180°
2022 May 13, 12:51 36.25834° -75.59188° 30 min 0.03 0.00
180°
2022 May 13, 12:21 36.25836° -75.59188° 30 min 0.03 0.00
58°
2022 May 13, 11:51 36.25835° -75.59190° 30 min 0.03 0.00
180°
2022 May 13, 11:21 36.25837° -75.59190° 30 min 0.03 0.01
65°
2022 May 13, 10:51 36.25835° -75.59196° 30 min 0.03 0.00
63°
2022 May 13, 10:21 36.25833° -75.59201° 30 min 0.03 0.00
107°
2022 May 13, 09:51 36.25834° -75.59206° 30 min 0.03 0.01
99°
2022 May 13, 09:21 36.25835° -75.59212° 30 min 0.03 0.00
316°
2022 May 13, 08:51 36.25833° -75.59209° 30 min 0.03 0.01
90°
2022 May 13, 08:21 36.25833° -75.59216° 30 min 0.03 0.01
80°
2022 May 13, 07:51 36.25832° -75.59225° 30 min 0.03 0.00
321°
2022 May 13, 07:21 36.25829° -75.59222° 30 min 0.03 0.00
292°
2022 May 13, 06:51 36.25829° -75.59220° 30 min 0.03 0.00
2022 May 13, 06:21 36.25825° -75.59220° 30 min 0.03 0.01
270°
2022 May 13, 05:51 36.25825° -75.59214° 30 min 0.03 0.00
238°
2022 May 13, 05:21 36.25826° -75.59212° 30 min 0.03 0.00
238°
2022 May 13, 04:51 36.25827° -75.59209° 30 min 0.03 0.01
283°
2022 May 13, 04:21 36.25826° -75.59203° 30 min 0.03 0.00
2022 May 13, 03:51 36.25824° -75.59203° 30 min 0.04 0.01
264°
2022 May 13, 03:21 36.25825° -75.59190° 30 min 0.04 0.00
2022 May 13, 02:51 36.25824° -75.59190° 30 min 0.04 0.00
2022 May 13, 02:21 36.25822° -75.59190° 30 min 0.04 0.01
251°
2022 May 13, 01:51 36.25824° -75.59184° 30 min 0.04 0.00
180°
2022 May 13, 01:21 36.25825° -75.59184° 30 min 0.04 0.00
107°
2022 May 13, 00:51 36.25826° -75.59188° 30 min 0.04 0.00
270°
2022 May 13, 00:21 36.25826° -75.59184° 30 min 0.04 0.00
107°
2022 May 12, 23:51 36.25827° -75.59188° 30 min 0.04 0.01
85°
2022 May 12, 23:21 36.25826° -75.59203° 30 min 0.03 0.01
270°
2022 May 12, 22:51 36.25826° -75.59193° 30 min 0.04 0.01
100°
2022 May 12, 22:21 36.25827° -75.59201° 30 min 0.03 0.01
280°
2022 May 12, 21:51 36.25826° -75.59193° 30 min 0.04 0.02
86°
2022 May 12, 21:21 36.25825° -75.59214° 30 min 0.03 0.02
270°
2022 May 12, 20:51 36.25825° -75.59196° 30 min 0.04 0.01
102°
2022 May 12, 20:21 36.25826° -75.59203° 30 min 0.03 0.00
39°
2022 May 12, 19:51 36.25824° -75.59206° 30 min 0.03 0.00
90°
2022 May 12, 19:21 36.25824° -75.59209° 30 min 0.03 0.00
270°
2022 May 12, 18:51 36.25824° -75.59206° 30 min 0.03 0.00
329°
2022 May 12, 18:21 36.25821° -75.59203° 30 min 0.04 0.00
180°
2022 May 12, 17:51 36.25823° -75.59203° 30 min 0.04 0.00
302°
2022 May 12, 17:21 36.25822° -75.59201° 30 min 0.04 0.00
58°
2022 May 12, 16:51 36.25821° -75.59203° 30 min 0.04 0.01
251°
2022 May 12, 16:21 36.25823° -75.59195° 30 min 0.04 0.00
47°
2022 May 12, 15:51 36.25822° -75.59196° 30 min 0.04 0.00
250°
2022 May 12, 15:21 36.25823° -75.59193° 30 min 0.04 0.00
53°
2022 May 12, 14:51 36.25821° -75.59196° 30 min 0.04 0.01
255°
2022 May 12, 14:21 36.25823° -75.59186° 30 min 0.04 0.01
58°
2022 May 12, 13:51 36.25821° -75.59190° 30 min 0.04 0.00
107°
2022 May 12, 13:21 36.25822° -75.59195° 30 min 0.04 0.01
270°
2022 May 12, 12:51 36.25822° -75.59186° 30 min 0.04 0.00
180°
2022 May 12, 12:21 36.25824° -75.59186° 30 min 0.04 0.00
63°
2022 May 12, 11:51 36.25822° -75.59190° 30 min 0.04 0.00
90°
2022 May 12, 11:21 36.25822° -75.59193° 30 min 0.04 0.00
70°
2022 May 12, 10:51 36.25821° -75.59196° 30 min 0.04 0.00
227°
2022 May 12, 10:21 36.25822° -75.59195° 30 min 0.04 0.00
253°
2022 May 12, 09:51 36.25823° -75.59190° 30 min 0.04 0.01
90°
2022 May 12, 09:21 36.25823° -75.59196° 30 min 0.04 0.00
238°
2022 May 12, 08:51 36.25825° -75.59193° 30 min 0.04 0.01
292°
2022 May 12, 08:21 36.25822° -75.59184° 30 min 0.04 0.00
180°
2022 May 12, 07:51 36.25823° -75.59184° 30 min 0.04 0.00
58°
2022 May 12, 07:21 36.25822° -75.59186° 30 min 0.04 0.00
58°
2022 May 12, 06:51 36.25821° -75.59188° 30 min 0.04 0.00
58°
2022 May 12, 06:21 36.25820° -75.59190° 30 min 0.04 0.00
31°
2022 May 12, 05:51 36.25817° -75.59193° 30 min 0.04 0.00
2022 May 12, 05:21 36.25816° -75.59193° 30 min 0.04 0.01
135°
2022 May 12, 04:51 36.25819° -75.59196° 30 min 0.04 0.00
270°
2022 May 12, 04:21 36.25819° -75.59193° 30 min 0.04 0.01
77°
2022 May 12, 03:51 36.25817° -75.59199° 30 min 0.04 0.01
279°
2022 May 12, 03:21 36.25817° -75.59193° 30 min 0.04 0.01
233°
2022 May 12, 02:51 36.25821° -75.59186° 30 min 0.04 0.00
58°
2022 May 12, 02:21 36.25820° -75.59188° 30 min 0.04 0.01
302°
2022 May 12, 01:51 36.25817° -75.59184° 30 min 0.04 0.00
107°
2022 May 12, 01:21 36.25819° -75.59188° 30 min 0.04 0.01
251°
2022 May 12, 00:51 36.25821° -75.59180° 30 min 0.04 0.01
330°
2022 May 12, 00:21 36.25814° -75.59175° 30 min 0.05 0.01
90°
2022 May 11, 23:51 36.25814° -75.59182° 30 min 0.04 0.01
180°
2022 May 11, 23:21 36.25821° -75.59182° 30 min 0.04 0.00
90°
2022 May 11, 22:51 36.25821° -75.59184° 30 min 0.04 0.00
2022 May 11, 22:21 36.25820° -75.59184° 30 min 0.04 0.01
90°
2022 May 11, 21:51 36.25820° -75.59190° 30 min 0.04 0.00
90°
2022 May 11, 21:21 36.25820° -75.59193° 30 min 0.04 0.01
270°
2022 May 11, 20:51 36.25820° -75.59184° 30 min 0.04 0.00
90°
2022 May 11, 20:21 36.25820° -75.59188° 30 min 0.04 0.00
2022 May 11, 19:51 36.25817° -75.59188° 30 min 0.04 0.01
194°
2022 May 11, 19:21 36.25825° -75.59186° 30 min 0.04 0.01
71°
2022 May 11, 18:51 36.25823° -75.59193° 30 min 0.04 0.01
56°
2022 May 11, 18:21 36.25819° -75.59201° 30 min 0.04 0.01
248°
2022 May 11, 17:51 36.25822° -75.59190° 30 min 0.04 0.00
58°
2022 May 11, 17:21 36.25821° -75.59193° 30 min 0.04 0.00
2022 May 11, 16:51 36.25820° -75.59193° 30 min 0.04 0.00
219°
2022 May 11, 16:21 36.25822° -75.59190° 30 min 0.04 0.00
2022 May 11, 15:51 36.25821° -75.59190° 30 min 0.04 0.00
2022 May 11, 15:21 36.25819° -75.59190° 30 min 0.04 0.00
2022 May 11, 14:51 36.25819° -75.59190° 30 min 0.04 0.00
180°
2022 May 11, 14:21 36.25820° -75.59190° 30 min 0.04 0.00
39°
2022 May 11, 13:51 36.25817° -75.59193° 30 min 0.04 0.00
238°
2022 May 11, 13:21 36.25819° -75.59190° 30 min 0.04 0.01
238°
2022 May 11, 12:51 36.25821° -75.59186° 30 min 0.04 0.00
270°
2022 May 11, 12:21 36.25821° -75.59182° 30 min 0.04 0.00
90°
2022 May 11, 11:51 36.25821° -75.59184° 30 min 0.04 0.00
58°
2022 May 11, 11:21 36.25820° -75.59186° 30 min 0.04 0.00
90°
2022 May 11, 10:51 36.25820° -75.59188° 30 min 0.04 0.00
238°
2022 May 11, 10:21 36.25821° -75.59186° 30 min 0.04 0.00
58°
2022 May 11, 09:51 36.25820° -75.59188° 30 min 0.04 0.01
80°
2022 May 11, 09:21 36.25819° -75.59196° 30 min 0.04 0.00
233°
2022 May 11, 08:51 36.25821° -75.59193° 30 min 0.04 0.00
39°
2022 May 11, 08:21 36.25819° -75.59195° 30 min 0.04 0.00
2022 May 11, 07:51 36.25819° -75.59195° 30 min 0.04 0.00
152°
2022 May 11, 07:21 36.25821° -75.59196° 30 min 0.04 0.00
313°
2022 May 11, 06:51 36.25820° -75.59195° 30 min 0.04 0.00
133°
2022 May 11, 06:21 36.25821° -75.59196° 30 min 0.04 0.00
340°
2022 May 11, 05:51 36.25817° -75.59195° 30 min 0.04 0.00
76°
2022 May 11, 05:21 36.25817° -75.59199° 30 min 0.04 0.00
180°
2022 May 11, 04:51 36.25820° -75.59199° 30 min 0.04 0.00
2022 May 11, 04:21 36.25819° -75.59199° 30 min 0.04 0.00
270°
2022 May 11, 03:51 36.25819° -75.59196° 30 min 0.04 0.00
290°
2022 May 11, 03:21 36.25817° -75.59193° 30 min 0.04 0.00
90°
2022 May 11, 02:51 36.25817° -75.59195° 30 min 0.04 0.00
2022 May 11, 02:21 36.25816° -75.59195° 30 min 0.04 0.00
2022 May 11, 01:51 36.25814° -75.59195° 30 min 0.04 0.01
230°
2022 May 11, 01:21 36.25817° -75.59190° 30 min 0.04 0.00
2022 May 11, 00:51 36.25817° -75.59190° 30 min 0.04 0.00
248°
2022 May 11, 00:21 36.25817° -75.59188° 30 min 0.04 0.00
238°
2022 May 10, 23:51 36.25819° -75.59186° 30 min 0.04 0.00
58°
2022 May 10, 23:21 36.25817° -75.59188° 30 min 0.04 0.00
238°
2022 May 10, 22:51 36.25819° -75.59186° 30 min 0.04 0.00
107°
2022 May 10, 22:21 36.25820° -75.59190° 30 min 0.04 0.00
2022 May 10, 21:51 36.25817° -75.59190° 30 min 0.04 0.00
44°
2022 May 10, 21:21 36.25816° -75.59193° 30 min 0.04 0.00
211°
2022 May 10, 20:51 36.25819° -75.59190° 30 min 0.04 0.00
180°
2022 May 10, 20:21 36.25822° -75.59190° 30 min 0.04 0.00
28°
2022 May 10, 19:51 36.25819° -75.59193° 30 min 0.04 0.00
270°
2022 May 10, 19:21 36.25819° -75.59190° 30 min 0.04 0.00
2022 May 10, 18:51 36.25819° -75.59190° 30 min 0.04 0.00
238°
2022 May 10, 18:21 36.25820° -75.59188° 30 min 0.04 0.00
39°
2022 May 10, 17:51 36.25817° -75.59190° 30 min 0.04 0.00
270°
2022 May 10, 17:21 36.25817° -75.59188° 30 min 0.04 0.01
102°
2022 May 10, 16:51 36.25819° -75.59195° 30 min 0.04 0.00
2022 May 10, 16:21 36.25819° -75.59195° 30 min 0.04 0.00
302°
2022 May 10, 15:51 36.25817° -75.59193° 30 min 0.04 0.00
2022 May 10, 15:21 36.25817° -75.59193° 30 min 0.04 0.00
270°
2022 May 10, 14:51 36.25817° -75.59190° 30 min 0.04 0.00
270°
2022 May 10, 14:21 36.25817° -75.59186° 30 min 0.04 0.00
63°
2022 May 10, 13:51 36.25816° -75.59190° 30 min 0.04 0.00
211°
2022 May 10, 13:21 36.25819° -75.59188° 30 min 0.04 0.00
58°
2022 May 10, 12:51 36.25817° -75.59190° 30 min 0.04 0.00
2022 May 10, 12:21 36.25817° -75.59190° 30 min 0.04 0.00
282°
2022 May 10, 11:51 36.25817° -75.59186° 30 min 0.04 0.00
58°
2022 May 10, 11:21 36.25816° -75.59188° 30 min 0.04 0.00
180°
2022 May 10, 10:51 36.25819° -75.59188° 30 min 0.04 0.01
35°
2022 May 10, 10:21 36.25813° -75.59193° 30 min 0.04 0.01
210°
2022 May 10, 09:51 36.25820° -75.59188° 30 min 0.04 0.00
39°
2022 May 10, 09:21 36.25817° -75.59190° 30 min 0.04 0.00
180°
2022 May 10, 08:51 36.25819° -75.59190° 30 min 0.04 0.01
289°
2022 May 10, 08:21 36.25817° -75.59184° 30 min 0.04 0.01
109°
2022 May 10, 07:51 36.25819° -75.59190° 30 min 0.04 0.00
107°
2022 May 10, 07:21 36.25820° -75.59195° 30 min 0.04 0.00
2022 May 10, 06:51 36.25817° -75.59195° 30 min 0.04 0.00
238°
2022 May 10, 06:21 36.25819° -75.59193° 30 min 0.04 0.01
66°
2022 May 10, 05:51 36.25816° -75.59201° 30 min 0.04 0.01
249°
2022 May 10, 05:21 36.25817° -75.59195° 30 min 0.04 0.00
133°
2022 May 10, 04:51 36.25819° -75.59196° 30 min 0.04 0.00
227°
2022 May 10, 04:21 36.25820° -75.59195° 30 min 0.04 0.00
2022 May 10, 03:51 36.25819° -75.59195° 30 min 0.04 0.00
316°
2022 May 10, 03:21 36.25817° -75.59193° 30 min 0.04 0.00
180°
2022 May 10, 02:51 36.25817° -75.59193° 30 min 0.04 0.00
68°
2022 May 10, 02:21 36.25817° -75.59195° 30 min 0.04 0.00
287°
2022 May 10, 01:51 36.25816° -75.59190° 30 min 0.04 0.00
107°
2022 May 10, 01:21 36.25817° -75.59195° 30 min 0.04 0.00
224°
2022 May 10, 00:51 36.25819° -75.59193° 30 min 0.04 0.00
2022 May 10, 00:21 36.25816° -75.59193° 30 min 0.04 0.00
2022 May 09, 23:51 36.25816° -75.59193° 30 min 0.04 0.00
211°
2022 May 09, 23:21 36.25819° -75.59190° 30 min 0.04 0.00
2022 May 09, 22:51 36.25819° -75.59190° 30 min 0.04 0.00
63°
2022 May 09, 22:21 36.25817° -75.59195° 30 min 0.04 0.00
224°
2022 May 09, 21:51 36.25819° -75.59193° 30 min 0.04 0.01
2022 May 09, 21:21 36.25814° -75.59193° 30 min 0.04 0.00
180°
2022 May 09, 20:51 36.25816° -75.59193° 30 min 0.04 0.00
238°
2022 May 09, 20:21 36.25817° -75.59190° 30 min 0.04 0.00
149°
2022 May 09, 19:51 36.25820° -75.59193° 30 min 0.04 0.01
258°
2022 May 09, 19:21 36.25821° -75.59186° 30 min 0.04 0.01
90°
2022 May 09, 18:51 36.25821° -75.59195° 30 min 0.04 0.00
238°
2022 May 09, 18:21 36.25822° -75.59193° 30 min 0.04 0.00
53°
2022 May 09, 17:51 36.25820° -75.59196° 30 min 0.04 0.00
2022 May 09, 17:21 36.25817° -75.59196° 30 min 0.04 0.01
222°
2022 May 09, 16:51 36.25821° -75.59193° 30 min 0.04 0.00
90°
2022 May 09, 16:21 36.25821° -75.59196° 30 min 0.04 0.00
313°
2022 May 09, 15:51 36.25820° -75.59195° 30 min 0.04 0.00
321°
2022 May 09, 15:21 36.25817° -75.59193° 30 min 0.04 0.01
227°
2022 May 09, 14:51 36.25821° -75.59188° 30 min 0.04 0.00
39°
2022 May 09, 14:21 36.25819° -75.59190° 30 min 0.04 0.00
180°
2022 May 09, 13:51 36.25820° -75.59190° 30 min 0.04 0.00
2022 May 09, 13:21 36.25819° -75.59190° 30 min 0.04 0.00
2022 May 09, 12:51 36.25817° -75.59190° 30 min 0.04 0.01
230°
2022 May 09, 12:21 36.25822° -75.59184° 30 min 0.04 0.00
58°
2022 May 09, 11:51 36.25821° -75.59186° 30 min 0.04 0.00
2022 May 09, 11:21 36.25819° -75.59186° 30 min 0.04 0.00
180°
2022 May 09, 10:51 36.25820° -75.59186° 30 min 0.04 0.00
58°
2022 May 09, 10:21 36.25819° -75.59188° 30 min 0.04 0.00
219°
2022 May 09, 09:51 36.25821° -75.59186° 30 min 0.04 0.00
90°
2022 May 09, 09:21 36.25821° -75.59190° 30 min 0.04 0.00
28°
2022 May 09, 08:51 36.25817° -75.59193° 30 min 0.04 0.01
248°
2022 May 09, 08:21 36.25820° -75.59186° 30 min 0.04 0.01
58°
2022 May 09, 07:51 36.25817° -75.59190° 30 min 0.04 0.00
180°
2022 May 09, 07:21 36.25820° -75.59190° 30 min